Time;durP1;ratioP1;P1;durP2;ratioP2;P2;SDS_P1;SDS_P2;PMS_P1;PMS_P2;Temp;Humidity;BMP_temperature;BMP_pressure;BME280_temperature;BME280_humidity;BME280_pressure;Samples;Min_cycle;Max_cycle;Signal;HPM_P1;HPM_P2
2022/03/20 00:00:37;;;;;;;;;2.00;2.00;;;;;12.18;27.54;102217.84;5046767;28;45094;-69
2022/03/20 00:03:07;;;;;;;;;2.75;2.75;;;;;12.19;28.32;102214.28;5039493;28;45698;-71
2022/03/20 00:05:38;;;;;;;;;16.00;13.25;;;;;12.08;28.07;102192.41;5034823;28;45059;-70
2022/03/20 00:08:11;;;;;;;;;7.00;7.00;;;;;12.22;27.12;102222.47;5046900;28;45513;-70
2022/03/20 00:10:38;;;;;;;;;5.75;5.25;;;;;12.17;28.35;102216.00;5051866;28;45060;-69
2022/03/20 00:13:08;;;;;;;;;6.25;6.25;;;;;12.15;28.46;102218.59;5052658;28;46004;-69
2022/03/20 00:15:33;;;;;;;;;5.00;5.00;;;;;12.09;27.59;102223.72;5038406;28;45099;-71
2022/03/20 00:17:59;;;;;;;;;6.25;4.00;;;;;11.94;28.02;102189.09;5039351;28;45145;-69
2022/03/20 00:20:24;;;;;;;;;11.75;10.25;;;;;12.06;27.89;102212.84;5051923;28;45317;-69
2022/03/20 00:22:50;;;;;;;;;7.75;5.75;;;;;12.06;28.07;102211.91;5047882;28;45676;-70
2022/03/20 00:25:16;;;;;;;;;3.50;3.50;;;;;11.87;28.73;102178.94;5051632;28;45169;-70
2022/03/20 00:27:45;;;;;;;;;5.00;3.00;;;;;11.85;27.74;102177.97;5045242;28;45027;-69
2022/03/20 00:30:10;;;;;;;;;17.00;16.25;;;;;12.09;28.20;102214.75;5052544;28;45226;-70
2022/03/20 00:32:36;;;;;;;;;32.00;26.75;;;;;11.99;28.18;102213.41;5050215;28;45952;-70
2022/03/20 00:35:04;;;;;;;;;6.75;5.00;;;;;12.02;28.31;102218.00;5038098;28;45070;-71
2022/03/20 00:37:30;;;;;;;;;3.00;3.00;;;;;11.75;28.55;102173.06;5047132;28;45240;-67
2022/03/20 00:39:56;;;;;;;;;5.50;4.25;;;;;11.93;29.11;102200.69;5053219;28;44890;-69
2022/03/20 00:42:22;;;;;;;;;5.00;4.75;;;;;11.98;29.04;102214.28;5050432;28;45847;-70
2022/03/20 00:44:47;;;;;;;;;5.00;2.75;;;;;11.80;29.49;102196.50;5051189;28;45254;-69
2022/03/20 00:47:13;;;;;;;;;8.00;5.00;;;;;11.80;29.40;102199.19;5028870;28;45336;-69
2022/03/20 00:49:39;;;;;;;;;3.75;3.75;;;;;11.88;29.24;102198.59;5048951;28;44955;-69
2022/03/20 00:52:06;;;;;;;;;4.00;4.00;;;;;11.90;29.01;102202.28;5051686;28;45567;-69
2022/03/20 00:54:31;;;;;;;;;4.00;4.00;;;;;11.86;29.50;102202.97;5051163;28;45223;-69
2022/03/20 00:56:58;;;;;;;;;5.25;5.25;;;;;11.67;29.88;102175.38;5048903;28;45227;-68
2022/03/20 00:59:23;;;;;;;;;6.50;4.25;;;;;11.58;30.34;102156.22;5042504;28;45184;-71
2022/03/20 01:01:49;;;;;;;;;6.25;3.25;;;;;11.78;29.71;102202.66;5043752;28;45162;-70
2022/03/20 01:04:14;;;;;;;;;3.00;3.00;;;;;11.68;30.37;102198.66;5033067;28;44928;-70
2022/03/20 01:06:39;;;;;;;;;7.00;3.75;;;;;11.71;30.40;102190.72;5034148;28;46354;-71
2022/03/20 01:09:05;;;;;;;;;5.25;4.00;;;;;11.59;30.38;102180.38;5042996;28;45250;-69
2022/03/20 01:11:32;;;;;;;;;13.50;12.50;;;;;11.63;30.45;102205.53;5032794;28;45602;-71
2022/03/20 01:13:58;;;;;;;;;4.00;4.00;;;;;11.51;30.52;102178.22;5045380;28;44870;-68
2022/03/20 01:16:23;;;;;;;;;2.75;2.75;;;;;11.49;30.24;102198.66;5039567;28;45125;-70
2022/03/20 01:18:48;;;;;;;;;4.75;2.00;;;;;11.17;30.41;102139.19;5048326;28;45251;-70
2022/03/20 01:21:14;;;;;;;;;4.50;4.50;;;;;11.27;31.06;102161.94;5033008;28;45606;-67
2022/03/20 01:23:39;;;;;;;;;4.75;3.00;;;;;11.28;30.59;102164.69;5040128;28;45445;-68
2022/03/20 01:26:04;;;;;;;;;6.00;6.00;;;;;11.27;31.10;102169.97;5033680;28;45553;-68
2022/03/20 01:28:30;;;;;;;;;3.00;3.00;;;;;11.33;31.37;102175.59;5046543;28;45000;-70
2022/03/20 01:30:56;;;;;;;;;5.00;2.00;;;;;11.26;31.14;102179.75;5032777;28;45523;-70
2022/03/20 01:33:22;;;;;;;;;3.25;3.00;;;;;11.04;30.78;102154.69;5038603;28;44965;-70
2022/03/20 01:35:47;;;;;;;;;4.25;3.25;;;;;11.18;31.52;102179.38;5035674;28;45013;-68
2022/03/20 01:38:20;;;;;;;;;5.50;5.25;;;;;11.17;31.32;102177.59;5043232;28;45076;-67
2022/03/20 01:40:47;;;;;;;;;2.75;2.75;;;;;11.14;31.26;102163.16;5032862;28;45201;-68
2022/03/20 01:43:13;;;;;;;;;2.75;2.75;;;;;11.15;31.35;102183.69;5036332;28;44916;-67
2022/03/20 01:45:38;;;;;;;;;3.00;3.00;;;;;11.01;31.34;102154.53;5034057;28;44982;-68
2022/03/20 01:48:04;;;;;;;;;3.75;2.50;;;;;11.08;31.52;102179.81;5040987;28;45132;-68
2022/03/20 01:50:31;;;;;;;;;3.00;3.00;;;;;10.97;31.39;102165.00;5032700;28;46318;-68
2022/03/20 01:52:57;;;;;;;;;2.00;2.00;;;;;10.84;31.75;102158.19;5049724;28;45009;-67
2022/03/20 01:55:24;;;;;;;;;2.00;2.00;;;;;10.79;31.90;102146.31;5036958;28;45691;-68
2022/03/20 01:57:50;;;;;;;;;4.00;2.00;;;;;10.80;32.31;102143.72;5048390;28;45101;-67
2022/03/20 02:00:18;;;;;;;;;2.75;2.75;;;;;10.89;32.11;102162.00;5051566;28;45592;-68
2022/03/20 02:02:44;;;;;;;;;6.00;3.00;;;;;10.72;31.90;102145.13;5038647;28;45242;-69
2022/03/20 02:05:11;;;;;;;;;4.25;4.00;;;;;10.78;32.11;102150.78;5042024;28;45166;-70
2022/03/20 02:07:38;;;;;;;;;2.00;1.75;;;;;10.45;32.50;102092.16;5046629;28;45123;-67
2022/03/20 02:10:05;;;;;;;;;2.75;2.75;;;;;10.75;32.46;102139.03;5051664;28;45592;-68
2022/03/20 02:12:31;;;;;;;;;2.75;2.00;;;;;10.79;32.47;102149.00;5042562;28;45226;-67
2022/03/20 02:15:01;;;;;;;;;3.00;3.00;;;;;10.53;32.64;102107.69;5036585;28;45285;-70
2022/03/20 02:17:30;;;;;;;;;5.50;4.50;;;;;10.81;32.77;102148.25;5040028;28;45091;-69
2022/03/20 02:20:03;;;;;;;;;4.25;3.25;;;;;10.74;33.13;102138.13;5049317;28;45132;-67
2022/03/20 02:22:29;;;;;;;;;3.75;3.50;;;;;10.76;33.04;102141.78;5040474;28;45257;-67
2022/03/20 02:24:55;;;;;;;;;4.25;3.00;;;;;10.64;33.21;102122.44;5050538;28;44952;-68
2022/03/20 02:27:27;;;;;;;;;2.75;2.75;;;;;10.69;33.53;102135.22;5048638;28;45154;-67
2022/03/20 02:29:58;;;;;;;;;3.00;3.00;;;;;10.65;33.48;102125.19;5051545;28;45245;-69
2022/03/20 02:32:27;;;;;;;;;6.75;3.25;;;;;10.45;33.44;102091.28;5040757;28;45165;-66
2022/03/20 02:35:04;;;;;;;;;3.25;2.00;;;;;10.57;33.42;102115.00;5041316;28;45294;-68
2022/03/20 02:37:31;;;;;;;;;4.00;1.00;;;;;10.36;33.78;102104.16;5038470;28;45768;-69
2022/03/20 02:40:03;;;;;;;;;2.00;1.50;;;;;10.46;34.23;102120.72;5050841;28;45475;-69
2022/03/20 02:42:29;;;;;;;;;5.25;2.00;;;;;10.43;34.68;102109.00;5039184;28;45323;-66
2022/03/20 02:44:57;;;;;;;;;4.25;3.00;;;;;10.27;34.65;102080.56;5048869;28;45126;-69
2022/03/20 02:47:25;;;;;;;;;2.75;2.75;;;;;10.22;34.55;102093.69;5042699;28;45336;-69
2022/03/20 02:49:59;;;;;;;;;2.50;2.50;;;;;10.21;34.85;102112.31;5048185;28;45825;-68
2022/03/20 02:52:30;;;;;;;;;3.00;2.25;;;;;10.28;34.86;102109.13;5040591;28;45021;-67
2022/03/20 02:55:02;;;;;;;;;2.75;2.75;;;;;10.31;35.28;102111.91;5034585;28;45187;-68
2022/03/20 02:57:31;;;;;;;;;7.00;4.00;;;;;10.18;35.22;102101.47;5046223;28;45188;-68
2022/03/20 03:00:03;;;;;;;;;3.00;3.00;;;;;10.19;35.94;102104.22;5051431;28;45144;-67
2022/03/20 03:02:33;;;;;;;;;3.00;3.00;;;;;10.08;35.81;102102.75;5031141;28;45167;-72
2022/03/20 03:04:59;;;;;;;;;4.25;3.25;;;;;10.06;36.20;102109.78;5050001;28;45167;-69
2022/03/20 03:07:29;;;;;;;;;2.75;2.75;;;;;9.97;35.56;102080.88;5049909;28;45009;-68
2022/03/20 03:12:39;;;;;;;;;2.25;1.75;;;;;9.72;35.88;102028.91;5045187;28;44865;-66
2022/03/20 03:15:20;;;;;;;;;6.50;2.75;;;;;10.05;36.31;102075.94;5037469;28;45185;-69
2022/03/20 03:17:47;;;;;;;;;4.00;3.00;;;;;9.96;36.08;102065.69;5040708;28;45158;-68
2022/03/20 03:20:12;;;;;;;;;1.75;1.75;;;;;10.08;36.71;102077.00;5054297;28;46002;-69
2022/03/20 03:22:38;;;;;;;;;3.75;3.25;;;;;9.83;36.79;102040.13;5041222;28;45061;-69
2022/03/20 03:25:05;;;;;;;;;5.50;2.25;;;;;10.04;36.50;102085.66;5039927;28;45173;-71
2022/03/20 03:27:30;;;;;;;;;4.25;3.25;;;;;9.86;36.25;102060.72;5041432;28;45193;-70
2022/03/20 03:29:55;;;;;;;;;4.00;2.00;;;;;9.84;36.76;102059.75;5048359;28;45168;-68
2022/03/20 03:32:21;;;;;;;;;1.75;1.75;;;;;9.90;37.33;102084.06;5048618;28;45041;-68
2022/03/20 03:37:32;;;;;;;;;5.50;4.75;;;;;9.70;37.10;102061.69;5045644;28;45399;-68
2022/03/20 03:39:58;;;;;;;;;3.50;3.50;;;;;9.73;37.29;102078.81;5042280;28;45141;-70
2022/03/20 03:42:23;;;;;;;;;5.25;5.25;;;;;9.56;37.91;102053.00;5046907;28;45167;-68
2022/03/20 03:44:50;;;;;;;;;4.00;4.00;;;;;9.66;37.74;102086.41;5045396;28;45083;-68
2022/03/20 03:47:15;;;;;;;;;4.00;3.00;;;;;9.56;38.57;102075.25;5026740;28;45380;-67
2022/03/20 03:49:41;;;;;;;;;5.00;5.00;;;;;9.59;38.67;102090.50;5031744;28;46444;-68
2022/03/20 03:52:06;;;;;;;;;4.00;4.00;;;;;9.44;38.70;102079.03;5047894;28;45216;-68
2022/03/20 03:54:32;;;;;;;;;6.75;4.75;;;;;9.47;38.92;102089.84;5048512;28;45251;-68
2022/03/20 03:56:58;;;;;;;;;4.75;4.50;;;;;9.48;38.31;102081.03;5050619;28;45025;-67
2022/03/20 03:59:24;;;;;;;;;5.00;5.00;;;;;9.46;38.45;102083.63;5051929;28;46312;-68
2022/03/20 04:01:49;;;;;;;;;4.00;3.00;;;;;9.38;38.16;102069.88;5042078;28;45130;-70
2022/03/20 04:04:15;;;;;;;;;8.00;5.00;;;;;9.49;38.26;102082.88;5046755;28;44862;-70
2022/03/20 04:06:41;;;;;;;;;6.00;4.25;;;;;9.32;38.86;102053.56;5035738;28;45172;-69
2022/03/20 04:09:06;;;;;;;;;2.75;2.75;;;;;9.55;38.48;102077.84;5046392;28;45733;-68
2022/03/20 04:11:32;;;;;;;;;6.25;4.00;;;;;9.55;39.13;102078.78;5032250;28;45244;-70
2022/03/20 04:13:58;;;;;;;;;3.50;2.75;;;;;9.14;38.54;101991.25;5032885;28;45381;-68
2022/03/20 04:16:23;;;;;;;;;5.50;4.75;;;;;9.52;38.95;102059.00;5036902;28;45324;-68
2022/03/20 04:18:48;;;;;;;;;10.00;6.50;;;;;9.53;38.63;102083.09;5034580;28;45170;-68
2022/03/20 04:21:14;;;;;;;;;5.00;5.00;;;;;9.29;39.75;102045.41;5034453;28;45276;-69
2022/03/20 04:26:17;;;;;;;;;4.00;3.75;;;;;9.31;39.91;102078.38;5037337;28;45379;-66
2022/03/20 04:28:47;;;;;;;;;9.50;5.00;;;;;8.83;38.76;101979.91;5047186;28;45666;-67
2022/03/20 04:31:16;;;;;;;;;8.00;5.00;;;;;9.33;39.87;102057.13;5048711;28;45260;-68
2022/03/20 04:33:53;;;;;;;;;5.25;4.00;;;;;9.47;39.04;102076.50;5044588;28;44993;-68
2022/03/20 04:36:24;;;;;;;;;5.00;3.75;;;;;9.37;39.06;102062.72;5036165;28;45242;-67
2022/03/20 04:38:51;;;;;;;;;4.00;4.00;;;;;9.43;39.62;102078.13;5032904;28;45555;-67
2022/03/20 04:41:17;;;;;;;;;7.50;5.00;;;;;9.43;39.34;102088.78;5031997;28;45177;-68
2022/03/20 04:43:44;;;;;;;;;5.00;5.00;;;;;9.19;40.03;102051.09;5038004;28;45117;-70
2022/03/20 04:46:09;;;;;;;;;10.00;7.75;;;;;9.39;39.19;102079.72;5041041;28;45147;-68
2022/03/20 04:59:30;;;;;;;;;8.00;5.50;;;;;9.34;40.11;102075.88;5041998;28;46454;-68
2022/03/20 05:01:55;;;;;;;;;9.00;8.50;;;;;8.82;40.38;101986.03;5032131;28;45240;-68
2022/03/20 05:04:21;;;;;;;;;7.00;5.00;;;;;9.30;39.99;102072.97;5036941;28;45421;-67
2022/03/20 05:06:46;;;;;;;;;4.25;4.25;;;;;9.25;40.70;102070.06;5048560;28;44978;-69
2022/03/20 05:14:41;;;;;;;;;6.75;6.50;;;;;9.19;40.57;102068.00;5034958;28;45194;-67
2022/03/20 05:17:07;;;;;;;;;8.50;6.00;;;;;9.17;40.50;102053.66;5035444;28;45383;-67
2022/03/20 05:19:34;;;;;;;;;7.75;5.00;;;;;9.29;39.95;102066.72;5033609;28;45124;-66
2022/03/20 05:21:59;;;;;;;;;5.00;3.75;;;;;9.28;39.89;102061.31;5033112;28;45053;-67
2022/03/20 05:24:25;;;;;;;;;4.00;3.75;;;;;9.32;40.58;102066.91;5030006;28;45030;-68
2022/03/20 05:26:50;;;;;;;;;9.75;7.00;;;;;9.11;40.10;102037.34;5041009;28;45400;-67
2022/03/20 05:29:15;;;;;;;;;12.00;6.50;;;;;8.80;40.52;101973.50;5033106;28;45175;-68
2022/03/20 05:31:41;;;;;;;;;9.50;5.50;;;;;9.26;40.45;102061.22;5037292;28;45569;-71
2022/03/20 05:34:06;;;;;;;;;5.25;4.00;;;;;9.12;40.36;102038.25;5032112;28;45053;-66
2022/03/20 05:36:31;;;;;;;;;6.50;6.00;;;;;9.05;40.52;102034.34;5044373;28;45001;-68
2022/03/20 05:38:58;;;;;;;;;8.00;4.50;;;;;9.15;41.20;102055.31;5032874;28;45524;-68
2022/03/20 05:44:11;;;;;;;;;12.00;9.25;;;;;8.98;40.53;102032.19;5032055;28;45041;-70
2022/03/20 05:46:40;;;;;;;;;5.50;5.50;;;;;9.16;40.52;102056.25;5037586;28;44856;-69
2022/03/20 05:49:06;;;;;;;;;13.00;8.50;;;;;9.16;41.61;102054.50;5050326;28;45116;-68
2022/03/20 05:51:32;;;;;;;;;6.75;6.00;;;;;9.18;40.40;102063.47;5042427;28;45113;-67
2022/03/20 05:53:57;;;;;;;;;11.50;6.00;;;;;9.12;41.55;102049.81;5033152;28;45256;-67
2022/03/20 05:59:08;;;;;;;;;7.00;6.00;;;;;9.17;41.03;102053.66;5033074;28;45154;-67
2022/03/20 06:01:33;;;;;;;;;4.50;4.50;;;;;9.14;41.40;102052.56;5035791;28;44946;-67
2022/03/20 06:03:58;;;;;;;;;11.25;5.00;;;;;8.95;40.72;102010.69;5032052;28;45015;-70
2022/03/20 06:06:24;;;;;;;;;2.25;2.25;;;;;9.07;41.62;102039.75;5037643;28;44995;-70
2022/03/20 06:08:49;;;;;;;;;7.25;7.25;;;;;9.19;41.58;102056.41;5052161;28;45761;-70
2022/03/20 06:11:15;;;;;;;;;5.75;4.75;;;;;8.95;40.75;102013.38;5038505;28;45135;-67
2022/03/20 06:13:41;;;;;;;;;5.25;5.25;;;;;8.93;41.80;102023.94;5023992;28;45015;-68
2022/03/20 06:16:08;;;;;;;;;7.25;5.00;;;;;9.11;41.16;102064.00;5036628;28;45113;-69
2022/03/20 06:18:34;;;;;;;;;10.00;6.00;;;;;9.10;41.51;102066.59;5037069;28;45659;-68
2022/03/20 06:21:00;;;;;;;;;5.00;5.00;;;;;8.98;41.94;102042.84;5033727;28;45144;-69
2022/03/20 06:23:27;;;;;;;;;12.75;7.75;;;;;8.96;40.96;102042.78;5038022;28;45110;-68
2022/03/20 06:25:52;;;;;;;;;7.50;6.00;;;;;8.50;41.39;101976.34;5034376;28;45206;-70
2022/03/20 06:28:19;;;;;;;;;8.50;8.00;;;;;9.01;40.95;102073.25;5035442;28;45092;-70
2022/03/20 06:30:45;;;;;;;;;9.50;8.00;;;;;9.01;40.98;102080.34;5031453;28;45001;-69
2022/03/20 06:33:10;;;;;;;;;8.75;7.25;;;;;8.84;42.07;102045.69;5042850;28;45028;-70
2022/03/20 06:35:35;;;;;;;;;9.00;6.00;;;;;9.02;40.94;102075.09;5035684;28;45168;-68
2022/03/20 06:38:00;;;;;;;;;8.75;6.75;;;;;9.02;41.59;102080.44;5035441;28;46496;-68
2022/03/20 06:40:26;;;;;;;;;10.25;10.25;;;;;8.85;41.76;102052.84;5032471;28;45143;-69
2022/03/20 06:42:52;;;;;;;;;6.00;5.25;;;;;9.02;41.29;102084.81;5041511;28;45119;-69
2022/03/20 06:45:19;;;;;;;;;11.00;9.00;;;;;9.05;41.37;102095.66;5049972;28;45311;-69
2022/03/20 06:47:44;;;;;;;;;5.25;5.25;;;;;9.09;41.63;102094.06;5034672;28;45198;-69
2022/03/20 06:50:12;;;;;;;;;7.75;5.75;;;;;9.12;41.68;102091.56;5037624;28;44974;-68
2022/03/20 06:52:40;;;;;;;;;9.75;8.50;;;;;9.10;41.45;102082.59;5037698;28;45183;-69
2022/03/20 06:55:08;;;;;;;;;10.50;9.75;;;;;9.11;41.15;102090.66;5029473;28;45502;-68
2022/03/20 06:57:34;;;;;;;;;11.00;7.50;;;;;8.85;41.39;102058.16;5037078;28;47185;-69
2022/03/20 07:00:01;;;;;;;;;4.75;4.75;;;;;9.03;41.15;102106.22;5033669;28;45077;-68
2022/03/20 07:02:27;;;;;;;;;6.50;6.50;;;;;8.84;40.94;102072.34;5032983;28;45044;-69
2022/03/20 07:04:53;;;;;;;;;8.75;6.00;;;;;9.03;40.84;102113.31;5036405;28;45006;-67
2022/03/20 07:07:19;;;;;;;;;10.00;6.75;;;;;9.07;41.07;102122.41;5049611;28;46049;-68
2022/03/20 07:09:45;;;;;;;;;8.25;8.25;;;;;9.03;41.38;102111.56;5045086;28;45348;-69
2022/03/20 07:12:11;;;;;;;;;11.25;10.50;;;;;9.08;40.86;102116.25;5033996;28;45255;-68
2022/03/20 07:14:41;;;;;;;;;12.50;10.75;;;;;9.09;41.66;102112.72;5037674;28;45419;-68
2022/03/20 07:17:12;;;;;;;;;11.25;6.50;;;;;9.08;41.85;102110.91;5032281;28;45892;-68
2022/03/20 07:19:39;;;;;;;;;12.75;11.00;;;;;8.79;41.63;102054.25;5032681;28;45069;-69
2022/03/20 07:22:06;;;;;;;;;10.25;9.50;;;;;9.04;41.23;102100.09;5028816;28;45126;-69
2022/03/20 07:24:36;;;;;;;;;12.50;9.25;;;;;9.13;41.34;102114.75;5030272;28;44954;-68
2022/03/20 07:29:46;;;;;;;;;11.25;11.25;;;;;8.98;41.35;102099.75;5043279;28;45206;-69
2022/03/20 07:32:11;;;;;;;;;16.00;12.25;;;;;9.01;41.28;102115.91;5043842;28;45108;-67
2022/03/20 07:34:39;;;;;;;;;12.00;10.00;;;;;8.96;42.14;102121.78;5044944;28;45003;-67
2022/03/20 07:37:05;;;;;;;;;15.75;13.00;;;;;8.87;42.18;102123.97;5031298;28;45754;-69
2022/03/20 07:39:31;;;;;;;;;13.25;12.50;;;;;8.77;42.12;102102.13;5038330;28;45042;-70
2022/03/20 07:41:58;;;;;;;;;12.25;11.75;;;;;8.83;41.77;102122.91;5046491;28;45180;-68
2022/03/20 07:44:24;;;;;;;;;12.00;10.75;;;;;8.59;42.15;102088.69;5054349;28;45201;-69
2022/03/20 07:46:52;;;;;;;;;19.00;15.00;;;;;8.43;42.24;102038.06;5048725;28;45911;-67
2022/03/20 07:49:19;;;;;;;;;17.00;11.75;;;;;8.39;41.89;102030.72;5041398;28;45002;-68
2022/03/20 07:51:46;;;;;;;;;9.25;8.50;;;;;8.87;42.44;102100.00;5034012;28;45243;-69
2022/03/20 07:54:12;;;;;;;;;13.25;12.00;;;;;9.01;41.97;102115.91;5033820;28;45079;-70
2022/03/20 07:56:37;;;;;;;;;16.25;14.75;;;;;9.08;41.92;102109.16;5022441;28;45166;-70
2022/03/20 07:59:07;;;;;;;;;19.50;12.00;;;;;9.19;42.34;102115.09;5036568;28;45161;-69
2022/03/20 08:01:33;;;;;;;;;21.00;14.25;;;;;9.19;41.46;102125.75;5044719;28;45412;-65
2022/03/20 08:04:00;;;;;;;;;12.00;10.00;;;;;9.29;41.69;102120.06;5046755;28;44972;-70
2022/03/20 08:06:25;;;;;;;;;21.50;12.75;;;;;9.36;42.35;102111.56;5040860;28;45620;-69
2022/03/20 08:08:50;;;;;;;;;16.50;13.00;;;;;9.25;42.17;102085.16;5034121;28;44998;-68
2022/03/20 08:11:16;;;;;;;;;13.00;11.25;;;;;9.49;41.92;102117.56;5035074;28;45079;-69
2022/03/20 08:13:43;;;;;;;;;16.75;13.50;;;;;9.38;40.84;102084.97;5036333;28;45077;-70
2022/03/20 08:16:12;;;;;;;;;12.75;11.25;;;;;9.62;41.87;102125.38;5047393;28;45758;-67
2022/03/20 08:18:37;;;;;;;;;18.25;17.00;;;;;9.52;41.17;102097.28;5018267;28;45023;-70
2022/03/20 08:21:05;;;;;;;;;19.00;17.00;;;;;9.62;42.31;102117.34;5040605;28;45100;-67
2022/03/20 08:23:30;;;;;;;;;22.50;20.00;;;;;9.57;41.50;102117.13;5048473;28;45234;-67
2022/03/20 08:25:56;;;;;;;;;22.50;19.50;;;;;9.51;41.98;102100.78;5047541;28;47068;-69
2022/03/20 08:28:21;;;;;;;;;14.25;14.00;;;;;9.71;42.06;102112.47;5043992;28;45044;-69
2022/03/20 08:30:46;;;;;;;;;18.00;15.50;;;;;9.78;41.23;102114.66;5037940;28;45244;-69
2022/03/20 08:33:12;;;;;;;;;29.75;20.00;;;;;9.78;41.72;102082.63;5037677;28;45115;-69
2022/03/20 08:35:37;;;;;;;;;24.25;19.75;;;;;9.96;40.94;102106.66;5033925;28;45660;-71
2022/03/20 08:38:03;;;;;;;;;21.25;18.00;;;;;10.09;41.35;102109.94;5039794;28;45097;-71
2022/03/20 08:40:29;;;;;;;;;24.75;19.00;;;;;9.89;41.02;102060.88;5023405;28;45450;-71
2022/03/20 08:42:56;;;;;;;;;28.00;20.50;;;;;10.15;41.04;102111.16;5029453;28;45871;-71
2022/03/20 08:45:23;;;;;;;;;30.50;24.50;;;;;10.25;41.09;102116.97;5029604;28;46427;-69
2022/03/20 08:47:49;;;;;;;;;27.00;21.75;;;;;10.28;40.92;102122.47;5026657;28;46098;-69
2022/03/20 08:50:15;;;;;;;;;25.50;18.25;;;;;10.33;40.56;102116.53;5024608;28;45508;-69
2022/03/20 08:52:44;;;;;;;;;20.00;19.00;;;;;10.26;40.91;102094.75;5018929;28;45631;-67
2022/03/20 08:55:10;;;;;;;;;23.00;19.50;;;;;10.44;40.35;102116.16;5019099;28;46066;-71
2022/03/20 08:57:41;;;;;;;;;25.00;22.00;;;;;10.54;40.29;102122.84;5024512;28;45573;-69
2022/03/20 09:00:12;;;;;;;;;26.25;23.25;;;;;10.55;40.06;102122.03;5030888;28;45295;-67
2022/03/20 09:02:37;;;;;;;;;23.00;21.00;;;;;10.69;39.89;102120.91;5015779;28;45542;-68
2022/03/20 09:05:06;;;;;;;;;24.50;21.50;;;;;10.81;39.54;102124.19;5018587;28;45296;-69
2022/03/20 09:07:32;;;;;;;;;33.00;26.00;;;;;10.92;39.98;102122.00;5029922;28;45501;-72
2022/03/20 09:09:58;;;;;;;;;26.00;24.25;;;;;11.05;39.47;102123.50;5038358;28;45145;-72
2022/03/20 09:12:24;;;;;;;;;31.75;24.25;;;;;11.00;39.15;102096.53;5024518;28;45557;-71
2022/03/20 09:14:49;;;;;;;;;35.25;26.75;;;;;11.15;38.96;102107.06;5018379;28;45493;-69
2022/03/20 09:19:58;;;;;;;;;30.25;23.75;;;;;11.10;38.96;102121.94;5016715;28;45524;-68
2022/03/20 09:22:26;;;;;;;;;31.00;24.50;;;;;11.11;39.38;102110.41;5015274;28;45453;-70
2022/03/20 09:24:52;;;;;;;;;32.25;26.75;;;;;11.15;38.67;102107.06;5036446;28;47135;-70
2022/03/20 09:27:17;;;;;;;;;27.25;23.75;;;;;11.00;38.91;102082.25;5042092;28;45423;-71
2022/03/20 09:29:46;;;;;;;;;33.25;26.75;;;;;11.28;38.41;102099.56;5027956;28;45672;-71
2022/03/20 09:32:12;;;;;;;;;30.50;27.00;;;;;11.57;38.03;102133.91;5019701;28;45618;-70
2022/03/20 09:34:38;;;;;;;;;28.75;26.25;;;;;11.54;37.69;102135.53;5014777;28;46097;-68
2022/03/20 09:37:03;;;;;;;;;22.25;20.75;;;;;11.66;37.97;102136.06;5015156;28;45506;-69
2022/03/20 09:39:29;;;;;;;;;35.25;27.00;;;;;11.59;37.71;102105.44;5014995;28;45388;-70
2022/03/20 09:41:55;;;;;;;;;28.75;27.25;;;;;11.81;37.43;102127.78;5015433;28;45453;-71
2022/03/20 09:44:23;;;;;;;;;36.50;28.75;;;;;11.84;37.97;102124.34;5014679;28;46261;-67
2022/03/20 09:46:49;;;;;;;;;32.00;26.75;;;;;11.86;37.74;102107.47;5033216;28;45572;-69
2022/03/20 09:49:16;;;;;;;;;35.00;31.25;;;;;12.05;37.79;102122.63;5032309;28;44997;-70
2022/03/20 09:51:42;;;;;;;;;30.00;23.75;;;;;12.09;37.34;102111.19;5043525;28;45546;-68
2022/03/20 09:54:08;;;;;;;;;34.50;28.50;;;;;12.52;36.59;102109.34;5033150;28;46273;-69
2022/03/20 09:56:34;;;;;;;;;29.50;27.25;;;;;12.83;35.54;102106.09;5043501;28;45104;-70
2022/03/20 09:58:59;;;;;;;;;35.50;28.50;;;;;12.72;35.25;102092.28;5014591;28;45148;-68
2022/03/20 10:01:25;;;;;;;;;26.50;20.00;;;;;12.58;34.91;102093.50;5037608;28;45053;-69
2022/03/20 10:04:15;;;;;;;;;32.00;29.75;;;;;12.72;34.90;102100.34;5021441;28;45208;-68
2022/03/20 10:06:41;;;;;;;;;27.75;23.25;;;;;12.85;35.06;102114.22;5038990;28;45129;-68
2022/03/20 10:09:11;;;;;;;;;27.25;23.00;;;;;12.82;34.99;102106.97;5038840;28;45345;-71
2022/03/20 10:11:53;;;;;;;;;30.50;24.50;;;;;13.04;34.86;102110.50;5029772;28;45597;-71
2022/03/20 10:14:23;;;;;;;;;35.75;28.00;;;;;13.02;34.38;102080.91;5018396;28;45592;-70
2022/03/20 10:16:54;;;;;;;;;34.50;28.00;;;;;13.35;33.66;102115.28;5040997;28;45071;-71
2022/03/20 10:19:22;;;;;;;;;24.00;21.25;;;;;13.48;33.50;102118.38;5030989;28;45061;-69
2022/03/20 10:21:52;;;;;;;;;32.25;28.75;;;;;13.52;33.75;102107.81;5041089;28;45200;-70
2022/03/20 10:24:20;;;;;;;;;26.50;24.25;;;;;13.62;33.36;102111.75;5031923;28;45390;-70
2022/03/20 10:27:00;;;;;;;;;27.00;25.50;;;;;13.58;32.88;102099.09;5036760;28;45264;-72
2022/03/20 10:29:29;;;;;;;;;25.75;24.25;;;;;13.48;32.26;102057.56;5032040;28;45035;-71
2022/03/20 10:31:59;;;;;;;;;30.00;26.25;;;;;13.23;31.37;102004.72;5020529;28;45213;-73
2022/03/20 10:34:24;;;;;;;;;31.25;26.75;;;;;13.84;32.57;102105.34;5032308;28;45993;-71
2022/03/20 10:36:51;;;;;;;;;22.50;19.00;;;;;14.00;31.21;102109.50;5036583;28;45006;-71
2022/03/20 10:39:25;;;;;;;;;32.00;24.50;;;;;14.10;31.46;102113.41;5042122;28;45183;-72
2022/03/20 10:41:56;;;;;;;;;19.25;16.50;;;;;14.10;29.22;102106.25;5048405;28;44879;-70
2022/03/20 10:44:27;;;;;;;;;26.50;21.00;;;;;13.72;29.81;102060.19;5028054;28;46462;-69
2022/03/20 10:46:57;;;;;;;;;21.25;19.00;;;;;13.98;28.97;102101.38;5018193;28;45529;-73
2022/03/20 10:49:23;;;;;;;;;26.50;21.50;;;;;14.05;30.37;102110.56;5028581;28;45559;-73
2022/03/20 10:52:12;;;;;;;;;21.25;19.00;;;;;14.20;29.46;102102.09;5014332;28;45283;-71
2022/03/20 10:54:45;;;;;;;;;16.25;14.50;;;;;14.12;28.42;102082.13;5013826;28;45698;-70
2022/03/20 10:57:13;;;;;;;;;21.00;17.00;;;;;13.99;28.48;102057.53;5032284;28;45546;-71
2022/03/20 10:59:40;;;;;;;;;25.75;21.00;;;;;14.23;28.94;102082.47;5030616;28;45241;-71
2022/03/20 11:02:19;;;;;;;;;26.25;21.75;;;;;14.24;28.92;102111.16;5039769;28;44989;-74
2022/03/20 11:04:45;;;;;;;;;25.75;22.50;;;;;14.13;29.49;102100.06;5049864;28;45159;-70
2022/03/20 11:07:16;;;;;;;;;27.50;25.25;;;;;14.24;29.25;102095.97;5050056;28;45296;-72
2022/03/20 11:09:43;;;;;;;;;20.75;16.00;;;;;14.27;28.43;102090.72;5043777;28;44951;-71
2022/03/20 11:12:13;;;;;;;;;35.25;25.00;;;;;14.04;28.50;102086.31;5030023;28;45502;-72
2022/03/20 11:14:38;;;;;;;;;36.25;29.00;;;;;14.17;29.26;102097.56;5028313;28;45814;-70
2022/03/20 11:17:06;;;;;;;;;25.00;20.50;;;;;14.01;28.04;102050.44;5031650;28;44964;-68
2022/03/20 11:19:34;;;;;;;;;13.75;11.25;;;;;13.95;27.89;102055.59;5026764;28;45257;-71
2022/03/20 11:22:05;;;;;;;;;32.50;24.00;;;;;14.23;28.21;102098.59;5033561;28;45204;-72
2022/03/20 11:24:31;;;;;;;;;24.50;22.75;;;;;14.24;27.30;102092.34;5033299;28;45718;-73
2022/03/20 11:27:02;;;;;;;;;21.25;20.00;;;;;14.04;27.44;102072.88;5031684;28;45509;-70
2022/03/20 11:29:40;;;;;;;;;18.50;18.00;;;;;14.07;27.40;102083.75;5032981;28;45477;-70
2022/03/20 11:32:08;;;;;;;;;20.50;18.50;;;;;14.01;27.83;102065.66;5046970;28;45177;-71
2022/03/20 11:34:34;;;;;;;;;19.00;17.75;;;;;14.27;27.74;102092.47;5050164;28;46865;-71
2022/03/20 11:37:03;;;;;;;;;18.00;15.50;;;;;14.37;27.16;102097.28;5050636;28;45013;-73
2022/03/20 11:39:29;;;;;;;;;18.25;17.75;;;;;14.43;27.24;102096.56;5051195;28;45147;-70
2022/03/20 11:42:30;;;;;;;;;16.50;13.75;;;;;14.45;27.07;102087.69;5050924;28;45131;-71
2022/03/20 11:45:07;;;;;;;;;18.50;14.75;;;;;14.52;27.00;102088.81;4988922;28;46040;-71
2022/03/20 11:47:41;;;;;;;;;15.75;13.50;;;;;14.55;26.70;102089.81;5027635;28;45248;-69
2022/03/20 11:50:26;;;;;;;;;19.25;17.50;;;;;14.58;26.61;102088.97;5054358;28;45017;-69
2022/03/20 11:52:58;;;;;;;;;16.25;15.75;;;;;14.61;26.88;102086.41;5034372;28;44963;-70
2022/03/20 11:55:42;;;;;;;;;18.25;18.25;;;;;14.66;27.15;102081.19;5016407;28;46162;-72
2022/03/20 11:58:12;;;;;;;;;23.50;17.00;;;;;14.74;27.28;102088.63;5034895;28;45102;-71